Time;durP1;ratioP1;P1;durP2;ratioP2;P2;SDS_P1;SDS_P2;PMS_P1;PMS_P2;Temp;Humidity;BMP_temperature;BMP_pressure;BME280_temperature;BME280_humidity;BME280_pressure;Samples;Min_cycle;Max_cycle;Signal;HPM_P1;HPM_P2
2021/12/17 00:00:08;;;;;;;57.80;25.50;;;9.10;99.90;;;;;;5096644;28;20040;-64
2021/12/17 00:03:10;;;;;;;58.78;24.85;;;9.20;99.90;;;;;;5094304;28;20044;-64
2021/12/17 00:08:22;;;;;;;60.20;26.65;;;9.10;99.90;;;;;;5128625;27;20059;-64
2021/12/17 00:10:50;;;;;;;70.07;26.77;;;9.20;99.90;;;;;;5112332;27;20042;-64
2021/12/17 00:13:17;;;;;;;61.00;25.80;;;9.20;99.90;;;;;;5100259;28;20032;-64
2021/12/17 00:15:44;;;;;;;59.67;25.60;;;9.20;99.90;;;;;;5100446;28;20075;-64
2021/12/17 00:18:17;;;;;;;58.85;25.17;;;9.10;99.90;;;;;;5099200;27;20049;-64
2021/12/17 00:53:00;;;;;;;57.95;23.73;;;9.10;99.90;;;;;;5130093;27;20048;-64
2021/12/17 00:55:26;;;;;;;47.45;22.10;;;9.10;99.90;;;;;;5099502;27;20058;-64
2021/12/17 00:57:51;;;;;;;54.88;22.70;;;9.20;99.90;;;;;;5100540;28;20039;-64
2021/12/17 01:00:21;;;;;;;52.58;22.33;;;9.10;99.90;;;;;;5130581;27;20044;-64
2021/12/17 01:02:47;;;;;;;58.33;21.92;;;9.10;99.90;;;;;;5099453;27;20048;-64
2021/12/17 01:05:17;;;;;;;47.60;22.48;;;9.10;99.90;;;;;;5097452;28;20040;-64
2021/12/17 01:07:47;;;;;;;55.33;23.38;;;9.20;99.90;;;;;;5129621;27;20440;-64
2021/12/17 01:10:28;;;;;;;54.38;23.35;;;9.20;99.90;;;;;;5099098;27;20043;-64
2021/12/17 01:12:55;;;;;;;51.33;21.65;;;9.20;99.90;;;;;;5099227;28;20433;-64
2021/12/17 01:15:21;;;;;;;44.10;20.33;;;9.20;99.90;;;;;;5098217;28;20042;-64
2021/12/17 01:17:52;;;;;;;47.72;19.98;;;9.20;99.90;;;;;;5097529;27;20047;-64
2021/12/17 01:20:32;;;;;;;45.80;21.10;;;9.20;99.90;;;;;;5129673;27;20056;-64
2021/12/17 01:23:12;;;;;;;38.10;18.90;;;9.20;99.90;;;;;;5093842;28;20046;-64
2021/12/17 01:36:03;;;;;;;51.45;20.90;;;9.20;99.90;;;;;;5097173;28;20036;-64
2021/12/17 01:44:01;;;;;;;44.13;19.17;;;9.20;99.90;;;;;;5098093;28;20398;-64
2021/12/17 01:46:30;;;;;;;37.95;18.15;;;9.20;99.90;;;;;;5099465;27;20036;-64
2021/12/17 01:59:52;;;;;;;37.05;17.08;;;9.20;99.90;;;;;;5097265;27;20294;-64
2021/12/17 02:02:18;;;;;;;41.33;17.30;;;9.20;99.90;;;;;;5129172;27;20049;-64
2021/12/17 02:04:44;;;;;;;29.02;15.07;;;9.20;99.90;;;;;;5128722;27;20035;-64
2021/12/17 02:07:10;;;;;;;30.15;14.27;;;9.20;99.90;;;;;;5098011;27;20576;-64
2021/12/17 02:10:23;;;;;;;33.45;14.93;;;9.10;99.90;;;;;;5098741;28;20092;-64
2021/12/17 02:20:58;;;;;;;22.77;13.15;;;9.10;99.90;;;;;;5094232;28;20044;-64
2021/12/17 02:32:02;;;;;;;28.65;14.48;;;9.10;99.90;;;;;;5097876;27;20039;-64
2021/12/17 02:37:02;;;;;;;35.08;16.38;;;9.10;99.90;;;;;;5097381;27;20435;-64
2021/12/17 02:47:34;;;;;;;28.23;15.52;;;9.20;99.90;;;;;;5127132;27;20071;-64
2021/12/17 02:50:00;;;;;;;34.40;16.13;;;9.20;99.90;;;;;;5097850;27;20074;-64
2021/12/17 02:52:29;;;;;;;25.20;14.25;;;9.20;99.90;;;;;;5100369;28;20038;-64
2021/12/17 02:54:57;;;;;;;25.70;14.75;;;9.20;99.90;;;;;;5093957;28;20474;-64
2021/12/17 02:57:23;;;;;;;33.17;16.98;;;9.20;99.90;;;;;;5096452;27;20054;-64
2021/12/17 02:59:49;;;;;;;28.63;15.20;;;9.10;99.90;;;;;;5093123;28;20062;-64
2021/12/17 03:02:17;;;;;;;23.02;13.10;;;9.10;99.90;;;;;;5126934;27;20039;-64
2021/12/17 03:04:42;;;;;;;30.02;14.85;;;9.20;99.90;;;;;;5096900;28;20058;-64
2021/12/17 03:07:13;;;;;;;26.25;15.02;;;9.10;99.90;;;;;;5097509;27;20564;-64
2021/12/17 03:10:01;;;;;;;26.95;14.57;;;9.10;99.90;;;;;;5127333;27;20035;-64
2021/12/17 03:12:35;;;;;;;31.98;14.77;;;9.20;99.90;;;;;;5094426;28;20040;-64
2021/12/17 03:23:39;;;;;;;32.13;14.82;;;9.10;99.90;;;;;;5092127;28;20456;-64
2021/12/17 03:26:16;;;;;;;30.83;14.77;;;9.10;99.90;;;;;;5098011;28;20410;-64
2021/12/17 03:28:45;;;;;;;30.92;13.77;;;9.10;99.90;;;;;;5094727;28;20043;-64
2021/12/17 03:31:11;;;;;;;25.20;13.38;;;9.00;99.90;;;;;;5100441;28;20040;-64
2021/12/17 03:33:41;;;;;;;31.38;13.93;;;9.00;99.90;;;;;;5099317;28;20394;-64
2021/12/17 03:36:08;;;;;;;27.15;14.65;;;9.10;99.90;;;;;;5099097;28;20118;-64
2021/12/17 03:38:34;;;;;;;26.17;14.02;;;9.10;99.90;;;;;;5101983;28;20634;-64
2021/12/17 03:41:15;;;;;;;27.30;14.02;;;9.00;99.90;;;;;;5105047;28;20032;-64
2021/12/17 03:43:42;;;;;;;27.80;13.13;;;9.00;99.90;;;;;;5108641;28;20048;-64
2021/12/17 03:46:07;;;;;;;34.92;13.32;;;9.00;99.90;;;;;;5103564;28;20048;-64
2021/12/17 03:48:37;;;;;;;29.17;13.70;;;9.00;99.90;;;;;;5103021;27;20525;-64
2021/12/17 03:51:04;;;;;;;25.88;13.93;;;9.00;99.90;;;;;;5102462;27;20594;-64
2021/12/17 03:53:29;;;;;;;31.02;12.88;;;9.00;99.90;;;;;;5105952;27;20031;-64
2021/12/17 03:55:55;;;;;;;19.50;10.25;;;9.00;99.90;;;;;;5104685;27;20042;-64
2021/12/17 03:58:21;;;;;;;30.58;13.05;;;9.00;99.90;;;;;;5103678;28;20044;-64
2021/12/17 04:00:47;;;;;;;25.75;13.52;;;9.00;99.90;;;;;;5107539;27;20046;-64
2021/12/17 04:03:12;;;;;;;28.70;14.65;;;9.00;99.90;;;;;;5103777;27;20055;-64
2021/12/17 04:05:38;;;;;;;27.80;13.20;;;9.00;99.90;;;;;;5103456;27;20035;-64
2021/12/17 04:08:04;;;;;;;30.40;14.90;;;9.00;99.90;;;;;;5103125;27;20490;-64
2021/12/17 04:10:39;;;;;;;25.10;13.52;;;9.00;99.90;;;;;;5103213;27;20481;-64
2021/12/17 04:13:24;;;;;;;22.65;12.52;;;9.00;99.90;;;;;;5132998;27;20062;-64
2021/12/17 04:15:59;;;;;;;27.65;13.75;;;9.00;99.90;;;;;;5136911;27;20044;-64
2021/12/17 04:18:26;;;;;;;26.85;13.73;;;9.10;99.90;;;;;;5102980;27;20035;-64
2021/12/17 04:20:52;;;;;;;27.05;13.82;;;9.00;99.90;;;;;;5102934;27;20828;-64
2021/12/17 04:23:18;;;;;;;24.88;13.23;;;9.00;99.90;;;;;;5101936;28;20067;-64
2021/12/17 04:25:44;;;;;;;27.92;14.38;;;9.00;99.90;;;;;;5109613;27;20142;-64
2021/12/17 04:28:09;;;;;;;26.27;13.02;;;9.00;99.90;;;;;;5132894;27;20561;-64
2021/12/17 04:30:37;;;;;;;25.10;13.10;;;9.00;99.90;;;;;;5090094;27;20040;-64
2021/12/17 04:33:03;;;;;;;20.75;11.48;;;9.00;99.90;;;;;;5098585;27;20032;-64
2021/12/17 04:35:28;;;;;;;25.52;13.63;;;9.00;99.90;;;;;;5105284;28;20043;-64
2021/12/17 04:37:54;;;;;;;22.75;12.95;;;9.10;99.90;;;;;;5101454;28;20126;-64
2021/12/17 04:40:22;;;;;;;25.10;12.88;;;9.10;99.90;;;;;;5102317;28;20035;-64
2021/12/17 04:43:00;;;;;;;23.98;12.57;;;9.00;99.90;;;;;;5101666;27;20059;-64
2021/12/17 04:45:26;;;;;;;26.55;12.20;;;9.10;99.90;;;;;;5136105;27;21001;-64
2021/12/17 04:58:49;;;;;;;25.45;12.55;;;9.00;99.90;;;;;;5101219;27;20055;-64
2021/12/17 05:01:16;;;;;;;27.40;13.57;;;9.00;99.90;;;;;;5103370;27;20032;-64
2021/12/17 05:03:42;;;;;;;25.13;12.55;;;9.00;99.90;;;;;;5132372;27;20050;-64
2021/12/17 05:06:08;;;;;;;27.60;12.65;;;9.10;99.90;;;;;;5102014;27;20044;-64
2021/12/17 05:08:34;;;;;;;20.25;12.25;;;9.10;99.90;;;;;;5132105;27;20036;-64
2021/12/17 05:11:19;;;;;;;23.38;11.25;;;9.00;99.90;;;;;;5101431;27;20058;-64
2021/12/17 05:19:23;;;;;;;24.02;12.60;;;9.00;99.90;;;;;;5104506;27;20048;-64
2021/12/17 05:21:49;;;;;;;28.77;13.32;;;9.00;99.90;;;;;;5103343;28;20413;-64
2021/12/17 05:24:14;;;;;;;27.05;12.85;;;9.00;99.90;;;;;;5101600;27;20054;-64
2021/12/17 05:26:40;;;;;;;26.35;13.27;;;9.00;99.90;;;;;;5101295;27;20115;-64
2021/12/17 05:29:06;;;;;;;26.42;12.52;;;8.90;99.90;;;;;;5100240;28;20121;-64
2021/12/17 05:31:31;;;;;;;28.40;13.27;;;8.90;99.90;;;;;;5099231;28;20092;-64
2021/12/17 05:33:58;;;;;;;24.73;12.48;;;8.90;99.90;;;;;;5099860;28;20032;-64
2021/12/17 05:36:24;;;;;;;25.52;12.75;;;8.90;99.90;;;;;;5132034;27;20505;-64
2021/12/17 05:38:49;;;;;;;23.13;12.80;;;8.90;99.90;;;;;;5129688;27;20039;-64
2021/12/17 05:41:15;;;;;;;20.52;11.43;;;8.90;99.90;;;;;;5131906;27;20067;-64
2021/12/17 05:43:41;;;;;;;30.42;13.25;;;8.80;99.90;;;;;;5100830;27;20036;-64
2021/12/17 05:46:12;;;;;;;27.83;13.27;;;8.90;99.90;;;;;;5134777;27;20502;-64
2021/12/17 05:48:40;;;;;;;29.67;13.60;;;8.90;99.90;;;;;;5098652;28;20050;-64
2021/12/17 05:51:10;;;;;;;27.63;12.93;;;8.90;99.90;;;;;;5104973;28;20414;-64
2021/12/17 05:53:36;;;;;;;28.13;12.02;;;8.90;99.90;;;;;;5104101;28;20108;-64
2021/12/17 05:56:03;;;;;;;24.45;12.38;;;8.90;99.90;;;;;;5098617;27;20060;-64
2021/12/17 05:58:29;;;;;;;27.48;14.40;;;8.90;99.90;;;;;;5098438;27;20031;-64
2021/12/17 06:00:55;;;;;;;42.35;15.38;;;9.00;99.90;;;;;;5101355;27;20040;-64
2021/12/17 06:03:23;;;;;;;25.08;12.95;;;8.90;99.90;;;;;;5097893;28;20470;-64
2021/12/17 06:05:48;;;;;;;28.42;13.50;;;8.90;99.90;;;;;;5105287;27;20027;-64
2021/12/17 06:08:14;;;;;;;27.38;13.48;;;9.00;99.90;;;;;;5100297;28;20451;-64
2021/12/17 06:10:40;;;;;;;25.83;14.18;;;9.00;99.90;;;;;;5133122;27;20223;-64
2021/12/17 06:13:06;;;;;;;28.92;14.43;;;9.00;99.90;;;;;;5098475;28;20403;-64
2021/12/17 06:15:32;;;;;;;30.73;14.35;;;9.00;99.90;;;;;;5099836;27;20117;-64
2021/12/17 06:17:57;;;;;;;27.85;14.00;;;8.90;99.90;;;;;;5126768;27;20402;-64
2021/12/17 06:20:24;;;;;;;27.17;13.43;;;8.90;99.90;;;;;;5098987;28;20040;-64
2021/12/17 06:22:50;;;;;;;26.73;12.98;;;9.00;99.90;;;;;;5095896;28;20476;-64
2021/12/17 06:25:17;;;;;;;28.52;13.88;;;9.00;99.90;;;;;;5128447;27;20174;-64
2021/12/17 06:27:43;;;;;;;25.10;12.70;;;9.00;99.90;;;;;;5098003;28;20439;-64
2021/12/17 06:30:11;;;;;;;22.20;13.30;;;8.90;99.90;;;;;;5096680;28;20118;-64
2021/12/17 06:32:37;;;;;;;26.55;12.48;;;9.00;99.90;;;;;;5096355;27;20051;-64
2021/12/17 06:35:04;;;;;;;31.83;13.70;;;9.00;99.90;;;;;;5097673;28;20055;-64
2021/12/17 06:37:30;;;;;;;34.22;14.02;;;9.00;99.90;;;;;;5095549;28;20811;-64
2021/12/17 06:39:56;;;;;;;30.77;14.82;;;8.90;99.90;;;;;;5098773;27;20038;-64
2021/12/17 06:42:21;;;;;;;27.45;14.10;;;8.90;99.90;;;;;;5095869;28;20040;-64
2021/12/17 06:44:48;;;;;;;25.73;12.68;;;8.90;99.90;;;;;;5097705;28;20036;-64
2021/12/17 06:47:27;;;;;;;29.55;13.70;;;8.80;99.90;;;;;;5097425;28;20040;-64
2021/12/17 06:54:37;;;;;;;24.15;12.25;;;8.90;99.90;;;;;;5094985;28;20060;-64
2021/12/17 07:09:56;;;;;;;22.67;12.73;;;8.90;99.90;;;;;;5103839;27;20075;-64
2021/12/17 07:17:11;;;;;;;26.77;12.07;;;8.80;99.90;;;;;;5097710;28;20135;-64
2021/12/17 07:18:14;;;;;;;23.67;11.10;;;8.90;99.90;;;;;;5094044;27;20047;-64
2021/12/17 07:23:36;;;;;;;18.88;11.38;;;8.80;99.90;;;;;;5094771;28;20493;-64
2021/12/17 07:34:01;;;;;;;17.90;10.40;;;8.80;99.90;;;;;;5093056;28;20294;-64
2021/12/17 07:36:36;;;;;;;18.33;10.15;;;8.80;99.90;;;;;;5125387;27;20044;-64
2021/12/17 07:39:03;;;;;;;20.10;10.35;;;8.80;99.90;;;;;;5095050;28;20040;-64
2021/12/17 07:41:28;;;;;;;12.07;8.15;;;8.80;99.90;;;;;;5096096;28;20047;-64
2021/12/17 07:43:58;;;;;;;16.85;9.60;;;8.90;99.90;;;;;;5094261;28;20698;-64
2021/12/17 07:46:24;;;;;;;15.40;9.15;;;8.80;99.90;;;;;;5094348;28;20527;-64
2021/12/17 07:48:51;;;;;;;15.98;9.27;;;8.90;99.90;;;;;;5094481;28;20044;-64
2021/12/17 07:51:18;;;;;;;18.02;10.02;;;8.90;99.90;;;;;;5093183;28;20418;-64
2021/12/17 07:53:45;;;;;;;14.02;9.13;;;8.90;99.90;;;;;;5096723;28;20048;-64
2021/12/17 07:56:14;;;;;;;14.77;9.27;;;8.90;99.90;;;;;;5094395;28;20097;-64
2021/12/17 07:58:40;;;;;;;16.63;9.63;;;8.90;99.90;;;;;;5093258;28;20051;-64
2021/12/17 08:01:08;;;;;;;15.50;9.70;;;8.90;99.90;;;;;;5092157;28;20152;-64
2021/12/17 08:03:34;;;;;;;16.92;9.70;;;8.90;99.90;;;;;;5124720;27;20093;-63
2021/12/17 08:06:00;;;;;;;15.95;8.90;;;8.90;99.90;;;;;;5096221;28;20088;-64
2021/12/17 08:08:27;;;;;;;17.40;9.88;;;8.90;99.90;;;;;;5096895;28;20039;-64
2021/12/17 08:10:53;;;;;;;18.38;10.20;;;8.90;99.90;;;;;;5092981;28;20067;-64
2021/12/17 08:13:22;;;;;;;19.92;9.88;;;9.00;99.90;;;;;;5092389;28;20047;-64
2021/12/17 08:18:48;;;;;;;19.27;10.37;;;8.90;99.90;;;;;;5095058;28;20040;-64
2021/12/17 08:32:01;;;;;;;18.38;10.30;;;8.90;99.90;;;;;;5096139;28;20044;-64
2021/12/17 08:34:26;;;;;;;19.80;10.07;;;8.90;99.90;;;;;;5094171;28;20052;-64
2021/12/17 08:36:53;;;;;;;17.63;10.15;;;9.00;99.90;;;;;;5096369;27;20051;-64
2021/12/17 08:39:18;;;;;;;20.50;10.93;;;9.00;99.90;;;;;;5097735;28;20062;-64
2021/12/17 08:41:49;;;;;;;17.50;10.80;;;9.00;99.90;;;;;;5095893;28;20093;-64
2021/12/17 08:44:14;;;;;;;16.73;9.88;;;9.00;99.90;;;;;;5094891;28;20044;-64
2021/12/17 08:46:40;;;;;;;17.70;9.88;;;9.00;99.90;;;;;;5077949;28;20097;-64
2021/12/17 08:49:06;;;;;;;14.02;9.70;;;9.10;99.90;;;;;;5095531;28;20162;-64
2021/12/17 08:51:32;;;;;;;16.00;10.02;;;9.10;99.90;;;;;;5096301;28;20035;-64
2021/12/17 08:53:58;;;;;;;19.83;10.88;;;9.10;99.90;;;;;;5097546;28;20093;-64
2021/12/17 08:56:29;;;;;;;15.93;10.27;;;9.10;99.90;;;;;;5093549;28;20039;-64
2021/12/17 08:58:55;;;;;;;21.70;11.43;;;9.10;99.90;;;;;;5099035;28;20523;-64
2021/12/17 09:01:20;;;;;;;16.35;9.70;;;9.10;99.90;;;;;;5093216;28;20036;-64
2021/12/17 09:03:47;;;;;;;14.48;9.90;;;9.20;99.90;;;;;;5127204;27;20044;-64
2021/12/17 09:06:16;;;;;;;15.35;10.02;;;9.30;99.90;;;;;;5096567;28;20048;-64
2021/12/17 09:08:41;;;;;;;16.65;9.90;;;9.30;99.90;;;;;;5097383;28;20572;-64
2021/12/17 09:11:08;;;;;;;15.65;10.07;;;9.20;99.90;;;;;;5097201;27;20118;-64
2021/12/17 09:13:34;;;;;;;16.15;10.07;;;9.30;99.90;;;;;;5096964;28;20085;-64
2021/12/17 09:16:06;;;;;;;20.13;12.25;;;9.30;99.90;;;;;;5128963;27;20036;-64
2021/12/17 09:18:32;;;;;;;15.02;9.60;;;9.30;99.90;;;;;;5100269;28;20067;-64
2021/12/17 09:20:59;;;;;;;16.73;10.68;;;9.30;99.90;;;;;;5128201;27;20048;-64
2021/12/17 09:23:25;;;;;;;17.08;11.20;;;9.30;99.90;;;;;;5132722;27;20126;-64
2021/12/17 09:25:51;;;;;;;19.83;11.60;;;9.30;99.90;;;;;;5128934;27;20410;-64
2021/12/17 09:28:16;;;;;;;16.55;10.98;;;9.40;99.90;;;;;;5097393;28;20930;-64
2021/12/17 09:30:42;;;;;;;18.13;10.68;;;9.30;99.90;;;;;;5127015;27;20034;-64
2021/12/17 09:33:08;;;;;;;15.60;9.65;;;9.30;99.90;;;;;;5100129;28;20044;-64
2021/12/17 09:35:34;;;;;;;16.33;10.65;;;9.40;99.90;;;;;;5097392;28;20051;-64
2021/12/17 09:38:00;;;;;;;20.00;11.52;;;9.40;99.90;;;;;;5096596;28;20237;-64
2021/12/17 09:40:25;;;;;;;20.13;11.48;;;9.40;99.90;;;;;;5127700;27;20048;-64
2021/12/17 09:42:51;;;;;;;19.52;10.50;;;9.40;99.90;;;;;;5092548;28;20496;-64
2021/12/17 09:45:17;;;;;;;15.43;10.43;;;9.40;99.90;;;;;;5092951;27;20197;-64
2021/12/17 09:47:45;;;;;;;14.13;10.00;;;9.40;99.90;;;;;;5094813;27;20055;-64
2021/12/17 09:50:12;;;;;;;17.83;11.23;;;9.40;99.90;;;;;;5093912;28;20040;-64
2021/12/17 09:52:38;;;;;;;14.77;9.82;;;9.40;99.90;;;;;;5095017;28;20044;-64
2021/12/17 09:55:06;;;;;;;17.15;10.43;;;9.40;99.90;;;;;;5095495;27;20032;-64
2021/12/17 09:57:35;;;;;;;19.00;11.50;;;9.40;99.90;;;;;;5096045;28;20079;-64
2021/12/17 10:00:09;;;;;;;14.05;9.80;;;9.50;99.90;;;;;;5094394;27;20066;-64
2021/12/17 10:02:35;;;;;;;13.73;10.10;;;9.50;99.90;;;;;;5097385;28;20039;-64
2021/12/17 10:05:01;;;;;;;17.35;11.68;;;9.50;99.90;;;;;;5098174;28;20032;-64
2021/12/17 10:07:29;;;;;;;16.88;10.65;;;9.50;99.90;;;;;;5127582;27;20506;-64
2021/12/17 10:10:00;;;;;;;19.75;11.52;;;9.60;99.90;;;;;;5095724;28;20375;-64
2021/12/17 10:12:34;;;;;;;17.27;10.65;;;9.50;99.90;;;;;;5096414;28;20036;-64
2021/12/17 10:15:20;;;;;;;16.23;11.00;;;9.60;99.90;;;;;;5092005;28;20047;-64
2021/12/17 10:17:59;;;;;;;14.70;10.55;;;9.60;99.90;;;;;;5093797;28;20052;-64
2021/12/17 10:20:26;;;;;;;18.80;11.00;;;9.60;99.90;;;;;;5094437;27;20058;-64
2021/12/17 10:23:08;;;;;;;16.10;10.50;;;9.50;99.90;;;;;;5093611;28;20093;-64
2021/12/17 10:25:41;;;;;;;16.33;11.15;;;9.60;99.90;;;;;;5095052;28;20459;-64
2021/12/17 10:28:08;;;;;;;14.95;9.65;;;9.60;99.90;;;;;;5093906;28;20546;-64
2021/12/17 10:30:37;;;;;;;18.05;10.70;;;9.60;99.90;;;;;;5094478;28;20046;-64
2021/12/17 10:33:06;;;;;;;17.92;10.98;;;9.60;99.90;;;;;;5095410;28;20485;-64
2021/12/17 10:35:34;;;;;;;18.73;10.32;;;9.60;99.90;;;;;;5127432;27;20031;-64
2021/12/17 10:38:04;;;;;;;16.60;10.60;;;9.70;99.90;;;;;;5125505;27;20050;-64
2021/12/17 10:40:32;;;;;;;14.27;10.18;;;9.60;99.90;;;;;;5095674;28;20508;-64
2021/12/17 10:43:15;;;;;;;16.30;10.70;;;9.70;99.90;;;;;;5092730;28;20494;-64
2021/12/17 10:45:47;;;;;;;14.52;10.38;;;9.70;99.90;;;;;;5094186;28;20036;-64
2021/12/17 10:48:38;;;;;;;13.73;9.93;;;9.70;99.90;;;;;;5093783;28;20410;-64
2021/12/17 10:51:56;;;;;;;16.52;10.73;;;9.70;99.90;;;;;;5093522;28;20088;-64
2021/12/17 10:54:02;;;;;;;13.82;10.07;;;9.70;99.90;;;;;;5091595;28;20087;-64
2021/12/17 10:56:32;;;;;;;13.82;10.23;;;9.80;99.90;;;;;;5092453;28;20035;-64
2021/12/17 10:59:10;;;;;;;10.98;8.80;;;9.80;99.90;;;;;;5094715;28;20490;-64
2021/12/17 11:01:46;;;;;;;19.92;11.32;;;9.80;99.90;;;;;;5094867;28;20134;-64
2021/12/17 11:04:11;;;;;;;14.63;9.85;;;9.80;99.90;;;;;;5126108;27;20046;-64
2021/12/17 11:06:53;;;;;;;13.13;10.20;;;9.80;99.90;;;;;;5089738;28;20086;-64
2021/12/17 11:09:44;;;;;;;17.75;9.95;;;9.90;99.90;;;;;;5094991;28;20052;-64
2021/12/17 11:12:29;;;;;;;13.90;9.80;;;9.90;99.90;;;;;;5123836;27;20047;-64
2021/12/17 11:15:21;;;;;;;12.45;9.63;;;9.90;99.90;;;;;;5125556;27;20047;-64
2021/12/17 11:17:53;;;;;;;14.45;9.25;;;10.00;99.90;;;;;;5093390;28;20043;-64
2021/12/17 11:20:21;;;;;;;17.23;10.07;;;10.00;99.90;;;;;;5093389;28;20047;-64
2021/12/17 11:22:48;;;;;;;13.88;8.93;;;10.10;99.90;;;;;;5093857;28;20131;-64
2021/12/17 11:25:14;;;;;;;13.27;9.63;;;10.10;99.90;;;;;;5128609;27;20031;-64
2021/12/17 11:27:41;;;;;;;16.33;9.75;;;10.10;99.90;;;;;;5094628;28;20035;-64
2021/12/17 11:30:14;;;;;;;13.02;9.23;;;10.20;99.90;;;;;;5089720;28;20054;-64
2021/12/17 11:32:43;;;;;;;11.18;8.05;;;10.10;99.90;;;;;;5102379;28;20068;-64
2021/12/17 11:35:09;;;;;;;13.82;9.38;;;10.10;99.90;;;;;;5094156;28;20040;-64
2021/12/17 11:37:36;;;;;;;10.75;8.52;;;10.10;99.90;;;;;;5100359;28;20104;-64
2021/12/17 11:40:07;;;;;;;14.48;9.50;;;10.20;99.90;;;;;;5097210;28;20043;-64
2021/12/17 11:43:29;;;;;;;11.82;8.50;;;10.20;99.90;;;;;;5128458;27;20075;-64
2021/12/17 11:46:01;;;;;;;13.75;9.13;;;10.10;99.90;;;;;;5066594;28;20048;-64
2021/12/17 11:48:30;;;;;;;18.67;8.50;;;10.20;99.90;;;;;;5093729;28;20054;-64
2021/12/17 11:51:14;;;;;;;16.80;9.38;;;10.20;99.90;;;;;;5092579;28;20080;-64
2021/12/17 11:54:05;;;;;;;11.98;9.68;;;10.20;99.90;;;;;;5092800;28;20079;-64
2021/12/17 11:56:50;;;;;;;10.70;8.07;;;10.20;99.90;;;;;;5090310;28;20160;-64
2021/12/17 11:59:28;;;;;;;14.23;9.77;;;10.20;99.90;;;;;;5094297;28;20039;-64
2021/12/17 12:01:59;;;;;;;14.70;9.35;;;10.20;99.90;;;;;;5092550;28;20953;-64
2021/12/17 12:04:39;;;;;;;16.42;9.98;;;10.20;99.90;;;;;;5094833;28;20120;-64
2021/12/17 12:07:13;;;;;;;16.80;10.43;;;10.20;99.90;;;;;;5096017;28;20169;-64
2021/12/17 12:10:00;;;;;;;10.73;8.77;;;10.20;99.90;;;;;;5098206;27;20044;-64
2021/12/17 12:12:26;;;;;;;13.93;8.65;;;10.20;99.90;;;;;;5094735;28;20075;-64
2021/12/17 12:14:52;;;;;;;13.70;9.02;;;10.20;99.90;;;;;;5096230;28;20062;-64
2021/12/17 12:17:56;;;;;;;12.93;8.57;;;10.30;99.90;;;;;;5097814;28;20466;-64
2021/12/17 12:20:44;;;;;;;13.82;8.77;;;10.30;99.90;;;;;;5098283;28;20040;-64
2021/12/17 12:23:19;;;;;;;13.32;8.60;;;10.30;99.90;;;;;;5096666;27;20040;-64
2021/12/17 12:26:05;;;;;;;11.90;8.55;;;10.30;99.90;;;;;;5097351;28;20040;-64
2021/12/17 12:28:46;;;;;;;12.65;8.82;;;10.30;99.90;;;;;;5097746;28;20520;-64
2021/12/17 12:31:37;;;;;;;12.32;8.35;;;10.40;99.90;;;;;;5097885;28;20047;-64
2021/12/17 12:34:10;;;;;;;11.35;7.75;;;10.40;99.90;;;;;;5087274;28;20044;-64
2021/12/17 12:37:04;;;;;;;14.20;8.65;;;10.40;99.90;;;;;;5096706;28;20048;-64
2021/12/17 12:40:03;;;;;;;9.63;6.78;;;10.40;99.90;;;;;;5097149;28;20378;-64
2021/12/17 12:42:38;;;;;;;8.90;6.93;;;10.40;99.90;;;;;;5098604;27;20043;-64
2021/12/17 12:45:07;;;;;;;10.95;7.50;;;10.40;99.90;;;;;;5097354;27;20409;-64
2021/12/17 12:47:38;;;;;;;10.52;7.85;;;10.40;99.90;;;;;;5126859;27;20047;-64
2021/12/17 12:50:06;;;;;;;7.97;6.47;;;10.40;99.90;;;;;;5130189;27;20494;-64
2021/12/17 12:52:31;;;;;;;8.27;7.13;;;10.50;99.90;;;;;;5098644;28;20035;-64
2021/12/17 12:55:18;;;;;;;13.15;7.82;;;10.40;99.90;;;;;;5095757;28;20508;-64
2021/12/17 12:57:45;;;;;;;12.57;8.75;;;10.50;99.90;;;;;;5098127;28;20135;-64
2021/12/17 13:00:20;;;;;;;16.55;7.60;;;10.50;99.90;;;;;;5095561;28;20036;-64
2021/12/17 13:02:50;;;;;;;11.50;8.82;;;10.50;99.90;;;;;;5097636;27;20039;-64
2021/12/17 13:05:16;;;;;;;12.88;7.32;;;10.50;99.90;;;;;;5133507;27;20040;-64
2021/12/17 13:07:54;;;;;;;10.25;6.60;;;10.50;99.90;;;;;;5132241;27;20031;-64
2021/12/17 13:10:43;;;;;;;10.20;6.80;;;10.40;99.90;;;;;;5098327;28;20048;-64
2021/12/17 13:16:13;;;;;;;7.70;5.93;;;10.40;99.90;;;;;;5097119;28;20463;-64
2021/12/17 13:21:31;;;;;;;6.95;5.22;;;10.30;99.90;;;;;;5130713;27;20611;-64
2021/12/17 13:24:19;;;;;;;7.80;5.97;;;10.40;99.90;;;;;;5130509;27;20109;-64
2021/12/17 13:26:47;;;;;;;7.38;6.03;;;10.40;99.90;;;;;;5097803;28;20376;-64
2021/12/17 13:29:37;;;;;;;9.15;5.55;;;10.40;99.90;;;;;;5096090;28;20064;-64
2021/12/17 13:32:14;;;;;;;7.13;4.70;;;10.40;99.90;;;;;;5095917;27;20048;-64
2021/12/17 13:34:46;;;;;;;5.85;5.15;;;10.40;99.90;;;;;;5096484;28;20100;-64
2021/12/17 13:37:12;;;;;;;8.23;4.72;;;10.40;99.90;;;;;;5097971;28;20034;-64
2021/12/17 13:39:49;;;;;;;4.00;3.60;;;10.40;99.90;;;;;;5096885;28;20561;-64
2021/12/17 13:42:20;;;;;;;5.43;4.07;;;10.40;99.90;;;;;;5096918;28;20502;-64
2021/12/17 13:44:50;;;;;;;4.45;3.70;;;10.30;99.90;;;;;;5101572;28;20043;-64
2021/12/17 13:47:19;;;;;;;4.28;3.50;;;10.30;99.90;;;;;;5095885;28;20044;-64
2021/12/17 13:50:08;;;;;;;4.85;3.70;;;10.20;99.90;;;;;;5129753;27;20044;-64
2021/12/17 13:52:38;;;;;;;5.05;3.92;;;10.20;99.90;;;;;;5128125;27;20097;-64
2021/12/17 13:55:09;;;;;;;4.10;3.70;;;10.10;99.90;;;;;;5096553;28;20047;-64
2021/12/17 13:57:35;;;;;;;5.82;3.67;;;10.10;99.90;;;;;;5129783;27;20043;-64
2021/12/17 14:00:20;;;;;;;3.85;3.45;;;10.00;99.90;;;;;;5097856;28;20043;-64
2021/12/17 14:02:47;;;;;;;5.18;3.97;;;10.00;99.90;;;;;;5111588;27;20926;-64
2021/12/17 14:05:26;;;;;;;3.63;3.33;;;10.00;99.90;;;;;;5095817;28;20047;-64
2021/12/17 14:07:59;;;;;;;5.25;3.50;;;10.00;99.90;;;;;;5097055;28;20027;-64
2021/12/17 14:10:31;;;;;;;5.65;3.67;;;10.00;99.90;;;;;;5097323;28;20044;-64
2021/12/17 14:12:57;;;;;;;5.28;3.88;;;10.00;99.90;;;;;;5094133;28;20035;-64
2021/12/17 14:15:35;;;;;;;4.32;3.50;;;10.00;99.90;;;;;;5131172;27;20052;-64
2021/12/17 14:18:04;;;;;;;4.30;3.90;;;10.00;99.90;;;;;;5092658;28;20055;-64
2021/12/17 14:20:52;;;;;;;3.25;2.95;;;10.00;99.90;;;;;;5079911;28;20052;-64
2021/12/17 14:23:27;;;;;;;3.30;2.83;;;9.90;99.90;;;;;;5130147;27;20035;-64
2021/12/17 14:25:57;;;;;;;4.65;2.90;;;9.90;99.90;;;;;;5076542;28;20398;-64
2021/12/17 14:28:36;;;;;;;3.00;2.80;;;9.80;99.90;;;;;;5128429;27;20490;-64
2021/12/17 14:31:06;;;;;;;4.25;3.63;;;9.80;99.90;;;;;;5095553;28;20028;-64
2021/12/17 14:33:54;;;;;;;4.15;3.53;;;9.80;99.90;;;;;;5090613;28;20069;-64
2021/12/17 14:36:28;;;;;;;3.70;3.40;;;9.80;99.90;;;;;;5093554;28;20057;-64
2021/12/17 14:39:06;;;;;;;5.43;3.97;;;9.80;99.90;;;;;;5129611;27;20039;-64
2021/12/17 14:41:46;;;;;;;4.22;3.83;;;9.80;99.90;;;;;;5095897;28;20120;-64
2021/12/17 14:44:44;;;;;;;4.15;3.75;;;9.80;99.90;;;;;;5094071;28;20440;-64
2021/12/17 15:01:08;;;;;;;7.50;3.97;;;9.70;99.90;;;;;;5132974;27;20039;-64
2021/12/17 15:03:41;;;;;;;4.30;3.90;;;9.70;99.90;;;;;;5096760;27;20099;-64
2021/12/17 15:06:15;;;;;;;4.65;3.58;;;9.70;99.90;;;;;;5096521;28;20561;-64
2021/12/17 15:08:43;;;;;;;6.65;3.75;;;9.70;99.90;;;;;;5127955;27;20039;-64
2021/12/17 15:11:24;;;;;;;4.35;3.95;;;9.70;99.90;;;;;;5096891;28;20406;-64
2021/12/17 15:13:50;;;;;;;4.53;4.07;;;9.70;99.90;;;;;;5099579;27;20046;-64
2021/12/17 15:16:16;;;;;;;4.82;4.28;;;9.70;99.90;;;;;;5098140;28;20750;-64
2021/12/17 15:18:43;;;;;;;4.88;4.47;;;9.70;99.90;;;;;;5095899;28;20126;-64
2021/12/17 15:21:09;;;;;;;4.72;4.32;;;9.70;99.90;;;;;;5099830;27;20059;-64
2021/12/17 15:23:35;;;;;;;4.90;4.40;;;9.70;99.90;;;;;;5097201;28;20035;-64
2021/12/17 15:26:02;;;;;;;5.57;5.07;;;9.70;99.90;;;;;;5094893;27;20048;-64
2021/12/17 15:28:28;;;;;;;5.13;4.72;;;9.70;99.90;;;;;;5095358;28;20040;-64
2021/12/17 15:30:58;;;;;;;5.60;5.15;;;9.70;99.90;;;;;;5096705;28;20485;-64
2021/12/17 15:33:24;;;;;;;5.18;4.40;;;9.60;99.90;;;;;;5096380;28;20089;-64
2021/12/17 15:35:52;;;;;;;3.20;2.92;;;9.60;99.90;;;;;;5100486;27;20048;-64
2021/12/17 15:38:19;;;;;;;2.45;2.25;;;9.60;99.90;;;;;;5132320;27;20072;-64
2021/12/17 15:40:46;;;;;;;3.33;2.45;;;9.10;99.90;;;;;;5102197;28;20150;-64
2021/12/17 15:43:14;;;;;;;3.30;3.00;;;9.60;99.90;;;;;;5100575;28;20058;-64
2021/12/17 15:45:42;;;;;;;3.53;3.22;;;9.60;99.90;;;;;;5101916;28;20118;-64
2021/12/17 15:48:11;;;;;;;5.22;4.07;;;9.60;99.90;;;;;;5097885;27;20040;-64
2021/12/17 15:50:37;;;;;;;4.43;4.03;;;9.60;99.90;;;;;;5101725;27;20051;-64
2021/12/17 15:53:03;;;;;;;7.53;4.03;;;9.60;99.90;;;;;;5101353;28;20027;-64
2021/12/17 15:55:29;;;;;;;4.88;4.32;;;9.60;99.90;;;;;;5100997;27;20826;-64
2021/12/17 15:57:57;;;;;;;4.93;4.43;;;9.60;99.90;;;;;;5100762;28;20125;-64